Hiko, Nevada
Current Conditions -  °F | °C
As of 6:58 PM on Tuesday 21 Oct 2014 (Local Time) from KINS Reporting Station
Clear Clear  
Wind Chill: 23°   Ceiling: Unl
Heat Index: 23°   Visibility: 10mi
Dew Point: -3°   Wind: 5mph
Humidity: 17%   Direction: 310°NW
Pressure: 29.89"   Gusts: NA
Location:  37.6°N, 115.23°W
Report Text: KINS 220158Z AUTO 31004KT 10SM CLR 23/M03 A2989 RMK AO2 SLP089 T02301031
Loading
Personal Weather Stations






























Interactive Weather Map
Tropical Storm Tracking
New forecast layout! Learn more

10-Day Weather Forecast

Advertisements
Track Severe Weather on mobile